CheckWX is a tool to help pilots better visualize weather data.  It is not intended as a substitute for an official pre-flight weather briefing.

10:46:09 UTC

KGUY TAF
Guymon Municipal Airport
Guymon, Oklahoma, USA
KGUY 190525Z 1906/2006 32008KT P6SM SKC FM191500 03008KT P6SM FEW250 FM191800 12009KT P6SM SCT250 FM192000 15015G25KT P6SM BKN250

May-19@
06:00 UTC

May-19 @ 06:00 UTC

May-19@
15:00 UTC

May-19 @ 15:00 UTC

KGUY 190525Z 1906/2006 32008KT P6SM SKC
Wind
  • 320° at 8 KTS
Cloud Levels
  • Clear skies

May-19@
15:00 UTC

May-19 @ 15:00 UTC

May-19@
18:00 UTC

May-19 @ 18:00 UTC

FM191500 03008KT P6SM FEW250

From

From Standard forecast or significant change

Wind
  • 030° at 8 KTS
Cloud Levels
  • Few at 25,000' AGL

May-19@
18:00 UTC

May-19 @ 18:00 UTC

May-19@
20:00 UTC

May-19 @ 20:00 UTC

FM191800 12009KT P6SM SCT250

From

From Standard forecast or significant change

Wind
  • 120° at 9 KTS
Cloud Levels
  • Scattered at 25,000' AGL

May-19@
20:00 UTC

May-19 @ 20:00 UTC

May-20@
06:00 UTC

May-20 @ 06:00 UTC

FM192000 15015G25KT P6SM BKN250

From

From Standard forecast or significant change

Wind
  • 150° at 15 KTS
  • {Gusting to 25 KTS
Cloud Levels
  • Broken at 25,000' AGL